Nuku'alofa, Tonga
Current Conditions -  °F | °C
As of 1:00 PM on Monday 24 Nov 2014 (Local Time) from NFTF Reporting Station
Few Clouds Few Clouds  
Wind Chill: 81°   Ceiling: Unl
Heat Index: 85°   Visibility: 6mi
Dew Point: 72°   Wind: 12mph
Humidity: 74%   Direction: 160°SSE
Pressure: 29.85"   Gusts: NA
Location:  21.14°S, 175.22°W
Report Text: NFTF 240000Z 16010KT 9999 FEW012 FEW020TCU 27/22 Q1011
Loading
Personal Weather Stations






























Interactive Weather Map New forecast layout! Learn more

10-Day Weather Forecast

Advertisements
Track Severe Weather on mobile